Time;durP1;ratioP1;P1;durP2;ratioP2;P2;SDS_P1;SDS_P2;PMS_P1;PMS_P2;Temp;Humidity;BMP_temperature;BMP_pressure;BME280_temperature;BME280_humidity;BME280_pressure;Samples;Min_cycle;Max_cycle;Signal;HPM_P1;HPM_P2
2021/06/01 00:01:49;;;;;;;5.45;3.40;;;18.30;70.50;;;;;;5114517;28;20483;-47
2021/06/01 00:04:15;;;;;;;4.03;3.63;;;18.30;70.50;;;;;;5114597;28;20047;-46
2021/06/01 00:06:43;;;;;;;3.83;3.42;;;18.30;70.50;;;;;;5132473;27;20413;-43
2021/06/01 00:09:11;;;;;;;4.28;3.30;;;18.20;70.40;;;;;;5115790;27;20063;-49
2021/06/01 00:11:37;;;;;;;3.47;3.08;;;18.30;70.50;;;;;;5134137;27;20054;-45
2021/06/01 00:14:05;;;;;;;3.83;3.30;;;18.30;70.50;;;;;;5134897;27;20127;-45
2021/06/01 00:16:31;;;;;;;4.05;3.65;;;18.30;70.50;;;;;;5099743;28;20043;-44
2021/06/01 00:18:57;;;;;;;4.68;3.40;;;18.30;70.50;;;;;;5115523;27;20504;-46
2021/06/01 00:21:24;;;;;;;4.07;3.17;;;18.30;70.50;;;;;;5127165;27;20054;-49
2021/06/01 00:23:53;;;;;;;4.20;3.17;;;18.30;70.50;;;;;;5134817;27;20063;-46
2021/06/01 00:26:19;;;;;;;4.13;3.25;;;18.30;70.50;;;;;;5134882;27;20103;-47
2021/06/01 00:28:45;;;;;;;3.25;2.95;;;18.30;70.50;;;;;;5117553;27;20047;-43
2021/06/01 00:31:11;;;;;;;3.80;3.40;;;18.30;70.50;;;;;;5113892;28;20054;-46
2021/06/01 00:33:38;;;;;;;3.97;3.58;;;18.30;70.50;;;;;;5129773;27;20051;-47
2021/06/01 00:36:04;;;;;;;4.50;3.80;;;18.30;70.50;;;;;;5134872;27;20055;-47
2021/06/01 00:38:30;;;;;;;3.83;3.40;;;18.30;70.50;;;;;;5119785;27;20050;-45
2021/06/01 00:40:57;;;;;;;3.83;3.20;;;18.30;70.50;;;;;;5115408;27;20047;-47
2021/06/01 00:43:23;;;;;;;4.85;2.95;;;18.30;70.50;;;;;;5115196;27;20051;-45
2021/06/01 00:45:50;;;;;;;3.30;3.00;;;18.30;70.60;;;;;;5117916;27;20054;-47
2021/06/01 00:48:15;;;;;;;3.60;3.25;;;18.20;70.50;;;;;;5119180;27;20096;-49
2021/06/01 00:50:41;;;;;;;4.05;3.15;;;18.20;70.50;;;;;;5118997;27;20126;-46
2021/06/01 00:53:07;;;;;;;3.83;3.40;;;18.20;71.10;;;;;;5121625;27;20047;-45
2021/06/01 00:55:34;;;;;;;4.55;3.17;;;18.20;70.50;;;;;;5114543;28;20048;-54
2021/06/01 00:58:00;;;;;;;3.72;3.42;;;18.20;70.50;;;;;;5114337;28;20052;-46
2021/06/01 01:02:56;;;;;;;4.88;3.15;;;18.20;70.50;;;;;;5122440;27;20050;-44
2021/06/01 01:05:25;;;;;;;3.88;3.00;;;18.20;70.60;;;;;;5113733;28;20138;-55
2021/06/01 01:10:59;;;;;;;4.10;3.70;;;18.20;70.60;;;;;;5113247;28;20081;-47
2021/06/01 01:13:35;;;;;;;3.35;3.00;;;18.20;70.60;;;;;;5113211;28;20556;-50
2021/06/01 01:16:01;;;;;;;3.85;3.05;;;18.20;71.20;;;;;;5113599;28;20118;-49
2021/06/01 01:18:30;;;;;;;3.72;3.30;;;18.20;70.50;;;;;;5112760;28;20126;-54
2021/06/01 01:21:00;;;;;;;4.57;3.22;;;18.20;70.50;;;;;;5094755;28;20097;-46
2021/06/01 01:23:32;;;;;;;3.80;3.15;;;18.20;70.60;;;;;;5113183;28;20067;-47
2021/06/01 01:26:00;;;;;;;4.13;3.58;;;18.20;70.60;;;;;;5112609;28;20044;-48
2021/06/01 01:28:51;;;;;;;3.63;3.28;;;18.20;70.60;;;;;;5112905;28;20070;-51
2021/06/01 01:31:32;;;;;;;3.92;3.40;;;18.20;70.60;;;;;;5113275;28;20074;-47
2021/06/01 01:34:07;;;;;;;3.92;3.53;;;18.20;70.60;;;;;;5112630;28;20048;-50
2021/06/01 01:36:35;;;;;;;4.18;3.30;;;18.20;70.60;;;;;;5112932;28;20101;-49
2021/06/01 01:39:02;;;;;;;3.55;2.83;;;18.20;70.60;;;;;;5112625;28;20135;-48
2021/06/01 01:41:29;;;;;;;3.42;3.10;;;18.20;70.60;;;;;;5112987;28;20424;-56
2021/06/01 01:43:59;;;;;;;3.50;3.08;;;18.20;70.60;;;;;;5093930;28;20063;-46
2021/06/01 01:49:17;;;;;;;3.47;3.17;;;18.20;70.60;;;;;;5093193;28;20048;-46
2021/06/01 01:51:46;;;;;;;4.57;3.50;;;18.20;70.60;;;;;;5092762;28;20466;-45
2021/06/01 01:54:18;;;;;;;3.50;3.20;;;18.20;70.60;;;;;;5093976;28;20143;-49
2021/06/01 01:56:51;;;;;;;4.32;3.55;;;18.20;70.60;;;;;;5112612;28;20044;-44
2021/06/01 01:59:24;;;;;;;3.78;3.20;;;18.20;70.70;;;;;;5112664;28;20453;-46
2021/06/01 02:01:52;;;;;;;3.80;3.40;;;18.20;70.60;;;;;;5112234;28;20043;-47
2021/06/01 02:04:22;;;;;;;4.10;3.00;;;18.20;70.60;;;;;;5112413;28;20047;-46
2021/06/01 02:06:48;;;;;;;3.42;3.13;;;18.20;70.60;;;;;;5112014;28;20092;-47
2021/06/01 02:09:14;;;;;;;3.53;3.22;;;18.10;70.50;;;;;;5112419;28;20050;-47
2021/06/01 02:11:40;;;;;;;4.15;3.75;;;18.20;70.60;;;;;;5112418;28;20051;-51
2021/06/01 02:14:06;;;;;;;4.43;3.30;;;18.10;70.50;;;;;;5112514;28;20058;-54
2021/06/01 02:16:34;;;;;;;3.40;3.10;;;18.10;70.60;;;;;;5115911;28;20512;-48
2021/06/01 02:19:00;;;;;;;3.85;3.20;;;18.10;70.50;;;;;;5116475;28;20055;-54
2021/06/01 02:22:23;;;;;;;3.90;3.47;;;18.10;70.60;;;;;;5116140;28;20086;-54
2021/06/01 02:24:45;;;;;;;4.13;3.72;;;18.10;71.20;;;;;;5105418;28;20051;-53
2021/06/01 02:27:17;;;;;;;3.42;3.13;;;18.10;70.60;;;;;;5096256;28;20097;-50
2021/06/01 02:30:00;;;;;;;3.70;3.08;;;18.10;70.60;;;;;;5096910;28;20098;-46
2021/06/01 02:32:35;;;;;;;4.47;3.38;;;18.10;70.60;;;;;;5116328;28;20552;-45
2021/06/01 02:35:07;;;;;;;3.30;2.95;;;18.10;70.60;;;;;;5116160;28;20071;-48
2021/06/01 02:37:34;;;;;;;5.35;3.97;;;18.10;70.60;;;;;;5116379;28;20399;-44
2021/06/01 02:40:02;;;;;;;4.10;3.00;;;18.10;70.60;;;;;;5116322;28;20051;-48
2021/06/01 02:42:28;;;;;;;3.38;3.08;;;18.10;70.60;;;;;;5116546;28;20104;-44
2021/06/01 02:44:54;;;;;;;4.55;3.13;;;18.10;70.60;;;;;;5117067;28;20051;-47
2021/06/01 02:47:20;;;;;;;4.32;3.30;;;18.20;70.70;;;;;;5116620;28;20118;-48
2021/06/01 02:49:48;;;;;;;3.20;2.90;;;18.10;70.60;;;;;;5116863;28;20260;-47
2021/06/01 02:52:13;;;;;;;3.67;3.22;;;18.10;70.60;;;;;;5116106;28;20047;-45
2021/06/01 02:54:39;;;;;;;3.65;3.35;;;18.10;70.60;;;;;;5115951;28;20055;-46
2021/06/01 02:57:05;;;;;;;4.40;3.50;;;18.10;70.60;;;;;;5116056;28;20522;-46
2021/06/01 02:59:31;;;;;;;3.58;3.22;;;18.10;70.70;;;;;;5115971;28;20103;-47
2021/06/01 03:01:57;;;;;;;3.67;2.97;;;18.00;70.60;;;;;;5097425;28;20051;-46
2021/06/01 03:04:23;;;;;;;3.72;3.42;;;18.20;70.70;;;;;;5115859;28;20043;-47
2021/06/01 03:06:48;;;;;;;3.35;2.97;;;18.10;70.70;;;;;;5131139;27;20066;-48
2021/06/01 03:09:14;;;;;;;3.05;2.72;;;18.00;70.60;;;;;;5116465;27;20055;-46
2021/06/01 03:11:41;;;;;;;3.58;3.05;;;18.10;70.70;;;;;;5135420;27;20070;-48
2021/06/01 03:14:07;;;;;;;3.85;3.45;;;18.10;70.70;;;;;;5127427;27;20510;-43
2021/06/01 03:16:33;;;;;;;3.50;3.20;;;18.10;70.70;;;;;;5118678;27;20142;-48
2021/06/01 03:18:58;;;;;;;3.58;3.10;;;18.00;70.70;;;;;;5134682;27;20051;-45
2021/06/01 03:21:24;;;;;;;3.40;3.10;;;18.10;70.70;;;;;;5135815;27;20407;-44
2021/06/01 03:23:50;;;;;;;3.90;3.20;;;18.10;70.70;;;;;;5117220;27;20051;-47
2021/06/01 03:26:16;;;;;;;4.70;3.20;;;18.10;70.70;;;;;;5116724;27;20057;-47
2021/06/01 03:28:42;;;;;;;3.70;3.10;;;18.10;70.70;;;;;;5126971;27;20047;-45
2021/06/01 03:31:08;;;;;;;3.65;3.15;;;18.00;70.70;;;;;;5131624;27;20089;-47
2021/06/01 03:33:35;;;;;;;3.40;3.10;;;18.10;70.80;;;;;;5115708;28;20055;-44
2021/06/01 03:36:01;;;;;;;3.08;2.75;;;18.10;70.80;;;;;;5116472;27;20480;-45
2021/06/01 03:38:27;;;;;;;4.03;3.28;;;18.00;70.70;;;;;;5115378;28;20052;-49
2021/06/01 03:40:53;;;;;;;4.18;3.28;;;18.00;70.70;;;;;;5133299;27;20048;-46
2021/06/01 03:43:19;;;;;;;4.18;3.30;;;18.00;70.70;;;;;;5131202;27;20039;-48
2021/06/01 03:45:45;;;;;;;3.65;3.17;;;18.00;71.40;;;;;;5116301;27;20506;-45
2021/06/01 03:48:11;;;;;;;3.30;3.00;;;18.10;70.80;;;;;;5115220;28;20047;-47
2021/06/01 03:50:37;;;;;;;3.33;3.03;;;18.00;70.70;;;;;;5115245;28;20396;-48
2021/06/01 03:53:04;;;;;;;3.45;3.08;;;18.00;70.70;;;;;;5128349;27;20475;-48
2021/06/01 03:55:31;;;;;;;4.55;3.20;;;18.00;70.80;;;;;;5132518;27;20047;-48
2021/06/01 03:57:57;;;;;;;4.05;3.33;;;18.00;70.80;;;;;;5116268;27;20128;-43
2021/06/01 04:00:28;;;;;;;4.18;3.45;;;18.00;70.80;;;;;;5114876;28;20492;-49
2021/06/01 04:02:56;;;;;;;3.20;2.72;;;18.00;70.80;;;;;;5125726;27;20143;-46
2021/06/01 04:05:22;;;;;;;3.65;3.20;;;18.10;70.90;;;;;;5134946;27;20601;-47
2021/06/01 04:07:48;;;;;;;3.72;3.35;;;18.00;70.80;;;;;;5132944;27;20134;-48
2021/06/01 04:10:17;;;;;;;4.13;3.13;;;18.00;70.80;;;;;;5134948;27;20058;-45
2021/06/01 04:12:43;;;;;;;3.47;3.00;;;18.10;70.90;;;;;;5121682;27;20085;-47
2021/06/01 04:15:09;;;;;;;4.47;3.53;;;18.00;70.80;;;;;;5114666;28;20063;-46
2021/06/01 04:17:35;;;;;;;3.80;3.40;;;18.00;70.90;;;;;;5124772;27;20051;-45
2021/06/01 04:20:03;;;;;;;3.33;3.03;;;18.00;70.90;;;;;;5134849;27;20457;-48
2021/06/01 04:22:28;;;;;;;3.72;3.30;;;18.00;70.90;;;;;;5134975;27;20066;-46
2021/06/01 04:24:54;;;;;;;4.28;3.85;;;18.00;70.90;;;;;;5134423;27;20475;-50
2021/06/01 04:27:20;;;;;;;4.82;3.20;;;18.00;70.90;;;;;;5127676;27;20048;-48
2021/06/01 04:29:45;;;;;;;4.03;3.40;;;17.90;70.80;;;;;;5115591;27;20066;-48
2021/06/01 04:32:11;;;;;;;3.55;3.22;;;17.90;70.80;;;;;;5114258;27;20052;-47
2021/06/01 04:34:38;;;;;;;6.32;3.65;;;18.00;70.90;;;;;;5126482;27;20050;-46
2021/06/01 04:37:04;;;;;;;3.35;3.05;;;18.00;70.90;;;;;;5125175;27;20114;-47
2021/06/01 04:39:30;;;;;;;3.78;3.30;;;18.00;71.00;;;;;;5113606;28;20083;-48
2021/06/01 04:41:55;;;;;;;3.58;3.25;;;18.00;71.00;;;;;;5114033;28;20459;-44
2021/06/01 04:44:21;;;;;;;4.75;3.38;;;18.00;71.00;;;;;;5114242;28;20445;-47
2021/06/01 04:46:47;;;;;;;4.20;3.60;;;18.00;70.90;;;;;;5115124;27;20079;-46
2021/06/01 04:49:13;;;;;;;3.67;3.22;;;18.00;70.90;;;;;;5114127;28;20047;-45
2021/06/01 04:51:38;;;;;;;4.45;3.22;;;18.00;71.00;;;;;;5114044;28;20048;-46
2021/06/01 04:54:04;;;;;;;4.20;3.58;;;18.00;71.00;;;;;;5114135;28;20051;-45
2021/06/01 04:56:33;;;;;;;4.70;3.60;;;18.00;71.00;;;;;;5097027;27;20035;-44
2021/06/01 04:58:58;;;;;;;3.47;3.15;;;18.00;71.00;;;;;;5114073;28;20506;-44
2021/06/01 05:01:25;;;;;;;4.40;3.33;;;18.00;71.00;;;;;;5113969;28;20086;-55
2021/06/01 05:03:51;;;;;;;5.25;3.50;;;18.00;71.00;;;;;;5113933;28;20055;-46
2021/06/01 05:06:17;;;;;;;3.40;3.00;;;18.00;71.00;;;;;;5113717;28;20502;-46
2021/06/01 05:08:43;;;;;;;5.07;3.13;;;17.90;70.90;;;;;;5113338;28;20085;-57
2021/06/01 05:11:09;;;;;;;4.18;3.78;;;18.00;71.00;;;;;;5113709;28;20123;-56
2021/06/01 05:13:35;;;;;;;3.92;3.53;;;18.00;71.00;;;;;;5114276;28;20125;-47
2021/06/01 05:16:01;;;;;;;4.13;3.72;;;18.00;71.00;;;;;;5113911;28;20055;-45
2021/06/01 05:18:28;;;;;;;4.30;3.30;;;17.90;70.90;;;;;;5113403;28;20043;-55
2021/06/01 05:20:53;;;;;;;4.20;3.70;;;18.00;71.00;;;;;;5113557;28;20066;-51
2021/06/01 05:23:19;;;;;;;4.72;3.55;;;18.00;71.00;;;;;;5113481;28;20047;-45
2021/06/01 05:25:45;;;;;;;3.45;3.13;;;18.00;71.00;;;;;;5112865;28;20127;-49
2021/06/01 05:28:12;;;;;;;3.63;3.20;;;18.00;71.00;;;;;;5113061;28;20053;-48
2021/06/01 05:33:19;;;;;;;3.53;3.22;;;18.00;71.00;;;;;;5113005;28;20053;-50
2021/06/01 05:35:52;;;;;;;4.40;2.92;;;18.00;71.00;;;;;;5113183;28;20104;-48
2021/06/01 05:38:22;;;;;;;4.00;3.53;;;18.00;71.00;;;;;;5113171;28;20039;-44
2021/06/01 05:40:48;;;;;;;4.10;3.33;;;18.00;71.00;;;;;;5112765;28;20108;-48
2021/06/01 05:43:14;;;;;;;3.15;2.85;;;18.00;71.00;;;;;;5113026;28;20430;-47
2021/06/01 05:45:40;;;;;;;4.70;3.35;;;18.00;71.00;;;;;;5113118;28;20052;-46
2021/06/01 05:48:08;;;;;;;3.53;2.67;;;18.00;71.00;;;;;;5113034;28;20047;-50
2021/06/01 05:50:35;;;;;;;3.30;2.83;;;18.00;71.00;;;;;;5111545;28;20488;-50
2021/06/01 05:53:01;;;;;;;3.58;2.75;;;18.00;71.00;;;;;;5112682;28;20047;-47
2021/06/01 05:55:28;;;;;;;4.18;2.90;;;18.00;71.00;;;;;;5112984;28;20047;-56
2021/06/01 05:57:54;;;;;;;3.40;3.05;;;17.80;70.90;;;;;;5112533;28;20044;-57
2021/06/01 06:00:21;;;;;;;4.03;3.08;;;18.00;71.00;;;;;;5112547;28;20093;-56
2021/06/01 06:02:47;;;;;;;4.03;3.00;;;18.00;71.00;;;;;;5112770;28;20407;-45
2021/06/01 06:05:13;;;;;;;4.32;3.20;;;18.00;71.00;;;;;;5115405;28;20063;-48
2021/06/01 06:07:40;;;;;;;4.32;3.42;;;18.00;71.00;;;;;;5132879;28;20059;-57
2021/06/01 06:10:07;;;;;;;3.38;3.08;;;18.00;71.00;;;;;;5133339;28;20047;-52
2021/06/01 06:12:34;;;;;;;3.30;3.00;;;18.00;71.00;;;;;;5131067;28;20050;-50
2021/06/01 06:15:00;;;;;;;3.67;3.22;;;18.00;71.00;;;;;;5133425;28;20399;-57
2021/06/01 06:17:34;;;;;;;3.53;3.20;;;18.00;71.00;;;;;;5133128;28;20047;-54
2021/06/01 06:20:04;;;;;;;4.20;3.20;;;18.00;71.00;;;;;;5132819;28;20047;-44
2021/06/01 06:22:30;;;;;;;3.88;3.47;;;18.00;71.00;;;;;;5131474;28;20043;-53
2021/06/01 06:24:56;;;;;;;4.50;3.25;;;18.00;71.00;;;;;;5133105;28;20044;-47
2021/06/01 06:27:21;;;;;;;3.50;2.80;;;18.00;71.00;;;;;;5089715;28;20558;-54
2021/06/01 06:29:47;;;;;;;2.70;2.38;;;17.90;70.90;;;;;;5111521;28;20052;-49
2021/06/01 06:32:13;;;;;;;3.22;2.85;;;18.00;71.00;;;;;;5111890;28;20392;-51
2021/06/01 06:34:39;;;;;;;3.92;3.17;;;18.00;71.00;;;;;;5118421;28;20062;-52
2021/06/01 06:37:05;;;;;;;3.33;2.80;;;18.00;71.00;;;;;;5113836;28;20052;-45
2021/06/01 06:39:33;;;;;;;3.63;3.05;;;18.00;71.00;;;;;;5112573;28;20071;-47
2021/06/01 06:42:00;;;;;;;4.90;2.78;;;18.00;71.00;;;;;;5112325;28;20048;-48
2021/06/01 06:44:30;;;;;;;3.53;2.90;;;18.00;71.00;;;;;;5112724;28;20067;-46
2021/06/01 06:47:21;;;;;;;3.22;2.78;;;18.00;71.00;;;;;;5112374;28;20464;-52
2021/06/01 06:49:47;;;;;;;3.65;3.00;;;18.00;71.00;;;;;;5111655;28;20067;-46
2021/06/01 06:52:13;;;;;;;3.20;2.65;;;18.00;71.00;;;;;;5112129;28;20040;-48
2021/06/01 06:54:40;;;;;;;3.10;2.67;;;18.00;71.00;;;;;;5111850;28;20387;-44
2021/06/01 06:57:07;;;;;;;3.28;2.97;;;18.00;71.10;;;;;;5111900;28;20043;-47
2021/06/01 06:59:33;;;;;;;3.83;3.42;;;18.00;71.10;;;;;;5111428;28;20498;-52
2021/06/01 07:02:00;;;;;;;3.38;2.60;;;18.00;71.10;;;;;;5113400;28;20043;-48
2021/06/01 07:04:25;;;;;;;3.50;3.20;;;18.10;71.20;;;;;;5115962;28;20127;-46
2021/06/01 07:06:56;;;;;;;3.33;2.55;;;18.00;71.80;;;;;;5123547;27;20051;-46
2021/06/01 07:09:22;;;;;;;3.83;2.90;;;18.10;71.30;;;;;;5122394;27;20040;-48
2021/06/01 07:11:48;;;;;;;3.22;2.83;;;18.10;71.20;;;;;;5125815;27;20043;-48
2021/06/01 07:14:17;;;;;;;2.95;2.60;;;18.10;71.30;;;;;;5126408;27;20052;-47
2021/06/01 07:16:45;;;;;;;4.00;2.95;;;18.10;71.30;;;;;;5123021;27;20176;-44
2021/06/01 07:19:12;;;;;;;2.88;2.67;;;18.10;71.30;;;;;;5126390;27;20120;-47
2021/06/01 07:21:38;;;;;;;3.30;3.00;;;18.10;71.30;;;;;;5124777;27;20043;-46
2021/06/01 07:24:07;;;;;;;2.90;2.55;;;18.10;71.30;;;;;;5118374;27;20097;-48
2021/06/01 07:26:33;;;;;;;3.30;2.70;;;18.10;71.40;;;;;;5115468;28;20040;-46
2021/06/01 07:29:03;;;;;;;3.40;2.45;;;18.10;71.40;;;;;;5115679;28;20043;-45
2021/06/01 07:31:51;;;;;;;2.80;2.60;;;18.10;71.30;;;;;;5090452;28;20406;-46
2021/06/01 07:34:18;;;;;;;4.10;2.83;;;18.20;71.40;;;;;;5111654;28;20063;-45
2021/06/01 07:37:04;;;;;;;3.58;2.72;;;18.20;71.40;;;;;;5089675;28;20051;-42
2021/06/01 07:39:33;;;;;;;2.80;2.50;;;18.20;71.40;;;;;;5106735;28;20097;-43
2021/06/01 07:41:58;;;;;;;2.75;2.55;;;18.20;71.40;;;;;;5111314;28;20055;-46
2021/06/01 07:44:25;;;;;;;2.70;2.50;;;18.20;71.30;;;;;;5111029;28;20052;-44
2021/06/01 07:46:51;;;;;;;2.88;2.63;;;18.20;71.30;;;;;;5110780;28;20078;-44
2021/06/01 07:49:17;;;;;;;2.92;2.63;;;18.20;71.30;;;;;;5110770;28;20105;-46
2021/06/01 07:51:43;;;;;;;3.05;2.50;;;18.20;71.30;;;;;;5111655;28;20404;-44
2021/06/01 07:54:09;;;;;;;2.80;2.55;;;18.20;71.20;;;;;;5111414;28;20058;-45
2021/06/01 07:56:36;;;;;;;2.85;2.58;;;18.30;71.30;;;;;;5110928;28;20083;-44
2021/06/01 07:59:22;;;;;;;;;;;18.30;71.30;;;;;;5095904;28;20055;-42
2021/06/01 08:01:51;;;;;;;3.10;2.50;;;18.30;71.30;;;;;;5110718;28;19923;-44
2021/06/01 08:04:17;;;;;;;6.53;2.53;;;18.30;71.20;;;;;;5110775;28;20517;-45
2021/06/01 08:06:42;;;;;;;2.53;2.30;;;18.30;71.20;;;;;;5125573;27;20503;-45
2021/06/01 08:09:09;;;;;;;3.03;2.60;;;18.20;71.10;;;;;;5130699;27;20071;-46
2021/06/01 08:11:35;;;;;;;2.90;2.50;;;18.30;71.10;;;;;;5131103;27;20043;-44
2021/06/01 08:14:03;;;;;;;2.60;2.40;;;18.40;71.20;;;;;;5130276;27;20443;-42
2021/06/01 08:16:40;;;;;;;3.17;2.85;;;18.30;71.10;;;;;;5131050;27;20128;-45
2021/06/01 08:19:19;;;;;;;2.83;2.50;;;18.40;71.10;;;;;;5130424;27;20141;-47
2021/06/01 08:24:17;;;;;;;2.50;2.30;;;18.40;71.00;;;;;;5131256;27;20116;-45
2021/06/01 08:26:43;;;;;;;2.45;2.25;;;18.40;71.00;;;;;;5131202;27;20078;-48
2021/06/01 08:29:08;;;;;;;3.58;2.67;;;18.50;71.00;;;;;;5131034;27;20078;-46
2021/06/01 08:31:35;;;;;;;2.92;2.65;;;18.50;70.90;;;;;;5133717;27;20700;-48
2021/06/01 08:34:01;;;;;;;2.38;2.17;;;18.50;70.90;;;;;;5134814;27;20039;-49
2021/06/01 08:36:27;;;;;;;2.45;2.25;;;18.50;70.80;;;;;;5134591;27;20047;-48
2021/06/01 08:38:53;;;;;;;3.03;2.40;;;18.50;70.80;;;;;;5134667;27;20047;-48
2021/06/01 08:41:20;;;;;;;2.65;2.45;;;18.60;70.80;;;;;;5134253;27;20112;-50
2021/06/01 08:43:50;;;;;;;2.63;2.30;;;18.60;70.80;;;;;;5134477;27;20147;-47
2021/06/01 08:46:16;;;;;;;3.20;2.40;;;18.60;70.70;;;;;;5134418;27;20039;-47
2021/06/01 08:48:43;;;;;;;2.38;2.17;;;18.60;70.70;;;;;;5134342;27;20551;-56
2021/06/01 08:51:09;;;;;;;3.22;2.40;;;18.60;70.60;;;;;;5134122;27;20108;-49
2021/06/01 08:53:35;;;;;;;3.35;2.45;;;18.90;70.50;;;;;;5134527;27;20129;-57
2021/06/01 08:56:02;;;;;;;3.67;2.70;;;19.20;69.80;;;;;;5134496;27;20077;-53
2021/06/01 08:58:28;;;;;;;7.00;3.30;;;19.20;69.30;;;;;;5134298;27;20554;-45
2021/06/01 09:00:54;;;;;;;5.13;3.00;;;19.80;70.30;;;;;;5134398;27;20114;-49
2021/06/01 09:03:23;;;;;;;8.98;3.35;;;22.20;66.20;;;;;;5133513;27;20039;-51
2021/06/01 09:06:01;;;;;;;4.05;3.00;;;24.80;60.60;;;;;;5133919;27;20063;-60
2021/06/01 09:22:44;;;;;;;5.97;2.65;;;32.40;41.90;;;;;;5134137;27;20043;-57
2021/06/01 09:25:17;;;;;;;6.18;3.10;;;33.00;37.60;;;;;;5050587;28;20048;-47
2021/06/01 09:27:46;;;;;;;27.35;4.05;;;33.30;39.10;;;;;;5050476;28;20593;-50
2021/06/01 09:30:30;;;;;;;190.68;21.67;;;34.10;37.50;;;;;;5050137;28;20041;-51
2021/06/01 09:32:56;;;;;;;157.73;18.05;;;35.30;36.30;;;;;;5050458;28;20049;-46
2021/06/01 09:35:22;;;;;;;13.43;3.58;;;34.90;35.00;;;;;;5048164;28;20051;-60
2021/06/01 09:37:47;;;;;;;145.77;14.35;;;33.70;34.30;;;;;;5023863;28;20072;-55
2021/06/01 09:40:17;;;;;;;382.50;38.03;;;32.70;34.90;;;;;;5010492;28;20533;-57
2021/06/01 09:42:47;;;;;;;237.95;24.45;;;33.50;35.50;;;;;;5027119;28;20053;-56
2021/06/01 09:45:14;;;;;;;218.30;22.00;;;33.30;35.20;;;;;;5031225;28;20104;-47
2021/06/01 09:47:52;;;;;;;180.45;21.85;;;32.50;35.60;;;;;;5037124;28;20053;-52
2021/06/01 09:53:19;;;;;;;129.32;17.65;;;30.50;37.20;;;;;;5050027;28;20539;-44
2021/06/01 09:55:49;;;;;;;121.55;16.52;;;29.60;38.50;;;;;;5038679;28;20054;-56
2021/06/01 09:58:33;;;;;;;125.95;15.35;;;28.80;39.70;;;;;;5046027;28;20091;-58
2021/06/01 10:01:03;;;;;;;84.45;12.82;;;28.00;40.60;;;;;;5062100;28;20512;-55
2021/06/01 10:03:45;;;;;;;87.05;13.60;;;27.40;41.80;;;;;;5092312;28;20044;-51
2021/06/01 10:06:12;;;;;;;75.70;11.70;;;26.70;42.70;;;;;;5111331;28;20051;-58
2021/06/01 10:08:49;;;;;;;82.47;12.50;;;26.20;43.70;;;;;;5132879;28;20043;-49
2021/06/01 10:11:16;;;;;;;61.85;10.05;;;25.80;44.60;;;;;;5133003;28;20065;-55
2021/06/01 10:13:42;;;;;;;58.03;10.30;;;25.40;45.40;;;;;;5132905;28;20050;-52
2021/06/01 10:16:10;;;;;;;53.15;10.80;;;25.00;46.20;;;;;;5132631;28;20062;-59
2021/06/01 10:18:40;;;;;;;53.40;9.27;;;24.70;46.90;;;;;;5132274;28;20058;-59
2021/06/01 10:21:09;;;;;;;43.83;9.48;;;24.40;47.70;;;;;;5132564;28;20039;-63
2021/06/01 10:23:37;;;;;;;47.08;8.75;;;24.20;48.40;;;;;;5132810;28;20047;-57
2021/06/01 10:26:05;;;;;;;39.08;10.73;;;23.90;49.00;;;;;;5132892;28;20051;-54
2021/06/01 10:28:37;;;;;;;32.63;8.05;;;23.70;49.60;;;;;;5132378;28;20118;-62
2021/06/01 10:31:05;;;;;;;31.65;7.05;;;23.50;50.20;;;;;;5132991;28;20402;-59
2021/06/01 10:33:43;;;;;;;33.80;7.10;;;23.30;50.70;;;;;;5132449;28;20053;-60
2021/06/01 10:50:31;;;;;;;22.75;5.97;;;22.40;53.50;;;;;;5052979;28;20199;-59
2021/06/01 10:53:17;;;;;;;23.80;6.15;;;22.40;54.10;;;;;;5053082;28;20056;-51
2021/06/01 10:55:49;;;;;;;17.80;5.75;;;22.20;54.50;;;;;;5053434;28;20454;-47
2021/06/01 10:58:21;;;;;;;22.80;6.10;;;22.10;54.80;;;;;;5053390;28;20463;-46
2021/06/01 11:03:18;;;;;;;27.58;5.78;;;22.00;55.30;;;;;;5053241;28;20135;-47
2021/06/01 11:05:59;;;;;;;20.30;4.97;;;21.90;55.70;;;;;;5052831;28;20129;-48
2021/06/01 11:08:38;;;;;;;16.60;4.40;;;21.90;56.00;;;;;;5052870;28;20092;-46
2021/06/01 11:11:22;;;;;;;19.33;4.57;;;21.80;56.30;;;;;;5051349;28;20078;-48
2021/06/01 11:13:55;;;;;;;8.85;3.95;;;21.80;55.40;;;;;;5052883;28;20049;-45
2021/06/01 11:16:21;;;;;;;13.43;4.38;;;21.80;55.60;;;;;;5052818;28;20550;-45
2021/06/01 11:18:59;;;;;;;9.93;3.88;;;21.80;55.70;;;;;;5052785;28;20057;-47
2021/06/01 11:21:38;;;;;;;11.35;4.45;;;21.70;55.90;;;;;;5092475;27;20059;-49
2021/06/01 11:35:37;;;;;;;9.43;3.20;;;21.40;57.20;;;;;;5135994;27;20059;-48
2021/06/01 11:38:09;;;;;;;7.10;3.53;;;21.40;57.50;;;;;;5135633;27;20384;-45
2021/06/01 11:43:08;;;;;;;8.27;3.78;;;21.30;57.90;;;;;;5133948;27;20122;-47
2021/06/01 11:45:39;;;;;;;7.20;3.30;;;21.30;58.10;;;;;;5135658;27;20050;-47
2021/06/01 11:48:09;;;;;;;6.38;3.15;;;21.20;58.30;;;;;;5134355;27;20121;-45
2021/06/01 11:53:18;;;;;;;6.43;3.25;;;21.10;58.70;;;;;;5133725;27;20402;-49
2021/06/01 11:55:46;;;;;;;9.43;3.72;;;21.10;58.90;;;;;;5118370;27;20044;-47
2021/06/01 12:04:06;;;;;;;5.10;2.65;;;21.10;59.40;;;;;;5116082;27;20588;-44
2021/06/01 12:12:40;;;;;;;4.72;2.60;;;21.00;59.80;;;;;;5114827;28;20047;-46
2021/06/01 12:18:20;;;;;;;5.28;2.97;;;21.00;60.10;;;;;;5115315;28;20048;-45
2021/06/01 12:20:47;;;;;;;4.30;2.78;;;21.00;60.20;;;;;;5114935;28;20108;-46
2021/06/01 12:23:31;;;;;;;5.10;3.03;;;20.90;60.30;;;;;;5114771;28;20126;-44
2021/06/01 12:31:55;;;;;;;5.85;2.78;;;20.90;60.70;;;;;;5134921;27;20407;-45
2021/06/01 12:43:00;;;;;;;5.88;3.40;;;21.10;59.50;;;;;;5134710;27;20054;-58
2021/06/01 13:19:43;;;;;;;4.55;2.80;;;21.40;60.50;;;;;;5133583;27;20041;-58
2021/06/01 13:22:39;;;;;;;3.25;2.83;;;21.30;60.40;;;;;;5133913;27;20066;-58
2021/06/01 13:39:06;;;;;;;3.70;2.70;;;21.30;61.00;;;;;;5132975;27;20134;-57
2021/06/01 13:46:47;;;;;;;5.75;2.83;;;21.20;61.20;;;;;;5132864;27;20039;-58
2021/06/01 13:51:58;;;;;;;2.97;2.58;;;21.20;61.40;;;;;;5132791;27;20150;-57
2021/06/01 13:57:13;;;;;;;4.13;2.53;;;21.20;61.50;;;;;;5132571;27;20080;-57
2021/06/01 13:59:55;;;;;;;3.10;2.72;;;21.10;61.50;;;;;;5132905;27;20053;-56
2021/06/01 14:56:48;;;;;;;3.63;2.40;;;20.80;63.00;;;;;;5112394;28;20124;-58
2021/06/01 15:09:59;;;;;;;3.20;2.55;;;20.70;63.30;;;;;;5049510;28;20049;-57
2021/06/01 15:50:38;;;;;;;3.15;2.25;;;20.60;64.20;;;;;;5052373;28;20504;-56
2021/06/01 16:23:27;;;;;;;2.45;2.25;;;20.50;64.70;;;;;;5124559;27;20035;-58
2021/06/01 16:43:04;;;;;;;2.70;2.17;;;20.40;65.00;;;;;;5071626;28;20094;-56
2021/06/01 17:04:51;;;;;;;2.75;2.38;;;20.40;65.30;;;;;;5090193;27;20085;-45
2021/06/01 17:13:05;;;;;;;2.92;2.22;;;20.40;65.40;;;;;;5115711;27;20050;-50
2021/06/01 17:15:31;;;;;;;3.00;2.70;;;20.40;65.50;;;;;;5113659;28;20039;-51
2021/06/01 17:18:19;;;;;;;3.42;2.80;;;20.40;65.60;;;;;;5113382;28;20117;-53
2021/06/01 17:36:45;;;;;;;2.97;2.60;;;20.30;65.50;;;;;;5134112;27;20054;-49
2021/06/01 17:39:11;;;;;;;3.50;2.60;;;20.30;65.60;;;;;;5133826;27;20483;-49
2021/06/01 17:41:38;;;;;;;3.63;2.45;;;20.30;65.70;;;;;;5133383;27;20043;-52
2021/06/01 17:44:05;;;;;;;3.13;2.83;;;20.30;65.70;;;;;;5132978;27;20495;-53
2021/06/01 17:46:36;;;;;;;3.22;2.70;;;20.30;65.70;;;;;;5132861;27;20117;-47
2021/06/01 17:49:04;;;;;;;4.00;3.17;;;20.30;65.80;;;;;;5132323;27;20047;-49
2021/06/01 17:51:31;;;;;;;3.13;2.80;;;20.30;65.80;;;;;;5132939;27;20039;-53
2021/06/01 17:53:59;;;;;;;3.00;2.70;;;20.20;65.80;;;;;;5133004;27;20050;-54
2021/06/01 17:56:27;;;;;;;2.80;2.33;;;20.30;65.90;;;;;;5112284;28;20109;-52
2021/06/01 17:58:54;;;;;;;4.90;3.20;;;20.30;65.90;;;;;;5100380;27;20076;-54
2021/06/01 18:01:25;;;;;;;2.88;2.58;;;20.30;65.90;;;;;;5129077;27;20071;-53
2021/06/01 18:06:19;;;;;;;2.78;2.42;;;20.30;66.00;;;;;;5109744;28;20059;-51
2021/06/01 18:52:51;;;;;;;3.10;2.80;;;20.20;66.30;;;;;;5129000;28;20047;-59
2021/06/01 19:06:23;;;;;;;3.88;2.78;;;20.20;66.50;;;;;;5133251;27;20058;-53
2021/06/01 19:25:25;;;;;;;3.08;2.78;;;20.10;66.60;;;;;;5132228;27;20062;-53
2021/06/01 19:49:59;;;;;;;4.28;3.13;;;20.10;66.80;;;;;;5048412;28;20092;-42
2021/06/01 19:52:28;;;;;;;3.17;2.80;;;20.10;66.80;;;;;;5042703;28;20041;-47
2021/06/01 19:54:55;;;;;;;3.40;2.88;;;20.10;66.80;;;;;;5031744;28;20068;-45
2021/06/01 19:57:23;;;;;;;2.88;2.45;;;20.10;66.90;;;;;;5032316;28;20049;-42
2021/06/01 19:59:51;;;;;;;2.80;2.50;;;20.10;66.90;;;;;;5031934;28;20068;-46
2021/06/01 20:02:24;;;;;;;2.70;2.50;;;20.10;66.90;;;;;;5032299;28;20084;-47
2021/06/01 20:04:51;;;;;;;3.42;2.95;;;20.10;66.90;;;;;;5031962;28;20062;-46
2021/06/01 20:07:18;;;;;;;3.05;2.75;;;20.10;66.90;;;;;;5046858;28;20061;-46
2021/06/01 20:09:45;;;;;;;3.90;3.00;;;20.10;66.90;;;;;;5070829;28;20047;-42
2021/06/01 20:12:12;;;;;;;3.17;2.72;;;20.10;66.90;;;;;;5114281;28;20055;-42
2021/06/01 20:14:38;;;;;;;2.55;2.35;;;20.10;66.90;;;;;;5114592;28;20444;-48